sensor_id;sensor_type;location;lat;lon;timestamp;P1;durP1;ratioP1;P2;durP2;ratioP2
8803;SDS011;4438;50.890;4.726;2024-01-25T00:02:24;34.40;;;8.60;;
8803;SDS011;4438;50.890;4.726;2024-01-25T00:04:50;37.90;;;9.73;;
8803;SDS011;4438;50.890;4.726;2024-01-25T00:07:16;46.17;;;10.03;;
8803;SDS011;4438;50.890;4.726;2024-01-25T00:09:42;36.30;;;9.63;;
8803;SDS011;4438;50.890;4.726;2024-01-25T00:12:08;34.17;;;9.17;;
8803;SDS011;4438;50.890;4.726;2024-01-25T00:14:34;31.20;;;9.27;;
8803;SDS011;4438;50.890;4.726;2024-01-25T00:17:01;38.70;;;9.13;;
8803;SDS011;4438;50.890;4.726;2024-01-25T00:19:27;31.27;;;8.93;;
8803;SDS011;4438;50.890;4.726;2024-01-25T00:21:53;31.23;;;8.83;;
8803;SDS011;4438;50.890;4.726;2024-01-25T00:24:19;40.33;;;9.73;;
8803;SDS011;4438;50.890;4.726;2024-01-25T00:26:45;33.37;;;8.60;;
8803;SDS011;4438;50.890;4.726;2024-01-25T00:29:11;38.07;;;9.70;;
8803;SDS011;4438;50.890;4.726;2024-01-25T00:31:37;36.27;;;9.70;;
8803;SDS011;4438;50.890;4.726;2024-01-25T00:34:03;35.63;;;9.60;;
8803;SDS011;4438;50.890;4.726;2024-01-25T00:36:30;38.07;;;9.90;;
8803;SDS011;4438;50.890;4.726;2024-01-25T00:38:56;41.40;;;9.63;;
8803;SDS011;4438;50.890;4.726;2024-01-25T00:41:22;36.60;;;9.93;;
8803;SDS011;4438;50.890;4.726;2024-01-25T00:43:48;31.30;;;9.10;;
8803;SDS011;4438;50.890;4.726;2024-01-25T00:46:15;37.03;;;8.60;;
8803;SDS011;4438;50.890;4.726;2024-01-25T00:48:41;40.80;;;9.33;;
8803;SDS011;4438;50.890;4.726;2024-01-25T00:51:08;38.57;;;9.03;;
8803;SDS011;4438;50.890;4.726;2024-01-25T00:53:37;37.13;;;10.67;;
8803;SDS011;4438;50.890;4.726;2024-01-25T00:56:04;31.27;;;8.97;;
8803;SDS011;4438;50.890;4.726;2024-01-25T00:58:30;34.90;;;8.80;;
8803;SDS011;4438;50.890;4.726;2024-01-25T01:00:56;33.57;;;9.40;;
8803;SDS011;4438;50.890;4.726;2024-01-25T01:03:22;34.47;;;8.57;;
8803;SDS011;4438;50.890;4.726;2024-01-25T01:05:48;36.93;;;9.33;;
8803;SDS011;4438;50.890;4.726;2024-01-25T01:08:14;39.43;;;9.50;;
8803;SDS011;4438;50.890;4.726;2024-01-25T01:10:41;30.23;;;8.53;;
8803;SDS011;4438;50.890;4.726;2024-01-25T01:13:07;30.03;;;9.60;;
8803;SDS011;4438;50.890;4.726;2024-01-25T01:15:33;34.13;;;8.37;;
8803;SDS011;4438;50.890;4.726;2024-01-25T01:17:59;32.30;;;9.40;;
8803;SDS011;4438;50.890;4.726;2024-01-25T01:20:25;34.63;;;10.03;;
8803;SDS011;4438;50.890;4.726;2024-01-25T01:22:51;32.47;;;8.80;;
8803;SDS011;4438;50.890;4.726;2024-01-25T01:25:17;35.33;;;8.70;;
8803;SDS011;4438;50.890;4.726;2024-01-25T01:27:43;37.10;;;9.67;;
8803;SDS011;4438;50.890;4.726;2024-01-25T01:30:10;33.53;;;8.83;;
8803;SDS011;4438;50.890;4.726;2024-01-25T01:32:36;31.00;;;9.83;;
8803;SDS011;4438;50.890;4.726;2024-01-25T01:35:02;38.90;;;9.47;;
8803;SDS011;4438;50.890;4.726;2024-01-25T01:37:28;30.57;;;9.00;;
8803;SDS011;4438;50.890;4.726;2024-01-25T01:39:54;33.13;;;9.37;;
8803;SDS011;4438;50.890;4.726;2024-01-25T01:42:21;35.20;;;9.20;;
8803;SDS011;4438;50.890;4.726;2024-01-25T01:44:48;35.40;;;9.10;;
8803;SDS011;4438;50.890;4.726;2024-01-25T01:47:15;37.60;;;9.07;;
8803;SDS011;4438;50.890;4.726;2024-01-25T01:49:42;28.87;;;8.70;;
8803;SDS011;4438;50.890;4.726;2024-01-25T01:52:08;32.73;;;7.87;;
8803;SDS011;4438;50.890;4.726;2024-01-25T01:54:34;30.53;;;8.43;;
8803;SDS011;4438;50.890;4.726;2024-01-25T01:57:01;30.20;;;9.00;;
8803;SDS011;4438;50.890;4.726;2024-01-25T01:59:27;37.67;;;9.03;;
8803;SDS011;4438;50.890;4.726;2024-01-25T02:01:54;36.80;;;9.53;;
8803;SDS011;4438;50.890;4.726;2024-01-25T02:04:20;36.40;;;9.30;;
8803;SDS011;4438;50.890;4.726;2024-01-25T02:06:46;29.90;;;8.80;;
8803;SDS011;4438;50.890;4.726;2024-01-25T02:09:12;36.20;;;9.53;;
8803;SDS011;4438;50.890;4.726;2024-01-25T02:11:39;31.30;;;9.57;;
8803;SDS011;4438;50.890;4.726;2024-01-25T02:14:05;34.97;;;9.00;;
8803;SDS011;4438;50.890;4.726;2024-01-25T02:16:35;27.97;;;8.23;;
8803;SDS011;4438;50.890;4.726;2024-01-25T02:19:01;32.70;;;8.63;;
8803;SDS011;4438;50.890;4.726;2024-01-25T02:21:27;40.87;;;9.07;;
8803;SDS011;4438;50.890;4.726;2024-01-25T02:23:53;32.27;;;8.30;;
8803;SDS011;4438;50.890;4.726;2024-01-25T02:26:19;33.90;;;9.10;;
8803;SDS011;4438;50.890;4.726;2024-01-25T02:28:46;35.87;;;8.67;;
8803;SDS011;4438;50.890;4.726;2024-01-25T02:31:12;36.23;;;8.13;;
8803;SDS011;4438;50.890;4.726;2024-01-25T02:33:38;40.60;;;9.23;;
8803;SDS011;4438;50.890;4.726;2024-01-25T02:36:04;38.63;;;8.33;;
8803;SDS011;4438;50.890;4.726;2024-01-25T02:38:30;38.80;;;9.10;;
8803;SDS011;4438;50.890;4.726;2024-01-25T02:40:56;39.87;;;9.53;;
8803;SDS011;4438;50.890;4.726;2024-01-25T02:43:22;45.73;;;10.60;;
8803;SDS011;4438;50.890;4.726;2024-01-25T02:45:48;40.47;;;10.43;;
8803;SDS011;4438;50.890;4.726;2024-01-25T02:48:14;37.03;;;9.77;;
8803;SDS011;4438;50.890;4.726;2024-01-25T02:50:40;36.80;;;9.83;;
8803;SDS011;4438;50.890;4.726;2024-01-25T02:53:07;43.83;;;9.20;;
8803;SDS011;4438;50.890;4.726;2024-01-25T02:55:33;30.40;;;8.77;;
8803;SDS011;4438;50.890;4.726;2024-01-25T02:57:59;31.40;;;9.10;;
8803;SDS011;4438;50.890;4.726;2024-01-25T03:00:25;32.17;;;8.53;;
8803;SDS011;4438;50.890;4.726;2024-01-25T03:02:51;36.23;;;9.40;;
8803;SDS011;4438;50.890;4.726;2024-01-25T03:05:17;33.00;;;9.33;;
8803;SDS011;4438;50.890;4.726;2024-01-25T03:07:43;30.07;;;9.30;;
8803;SDS011;4438;50.890;4.726;2024-01-25T03:10:09;43.33;;;9.80;;
8803;SDS011;4438;50.890;4.726;2024-01-25T03:12:35;33.93;;;8.47;;
8803;SDS011;4438;50.890;4.726;2024-01-25T03:15:01;38.57;;;8.90;;
8803;SDS011;4438;50.890;4.726;2024-01-25T03:17:27;35.37;;;9.47;;
8803;SDS011;4438;50.890;4.726;2024-01-25T03:19:54;30.17;;;7.87;;
8803;SDS011;4438;50.890;4.726;2024-01-25T03:22:20;25.90;;;8.47;;
8803;SDS011;4438;50.890;4.726;2024-01-25T03:24:47;27.13;;;8.20;;
8803;SDS011;4438;50.890;4.726;2024-01-25T03:27:13;29.90;;;9.67;;
8803;SDS011;4438;50.890;4.726;2024-01-25T03:29:43;28.10;;;8.30;;
8803;SDS011;4438;50.890;4.726;2024-01-25T03:32:09;25.30;;;8.10;;
8803;SDS011;4438;50.890;4.726;2024-01-25T03:34:35;30.73;;;7.87;;
8803;SDS011;4438;50.890;4.726;2024-01-25T03:37:01;22.17;;;7.17;;
8803;SDS011;4438;50.890;4.726;2024-01-25T03:39:27;24.70;;;8.03;;
8803;SDS011;4438;50.890;4.726;2024-01-25T03:41:53;25.37;;;7.13;;
8803;SDS011;4438;50.890;4.726;2024-01-25T03:44:19;25.40;;;7.87;;
8803;SDS011;4438;50.890;4.726;2024-01-25T03:46:45;26.47;;;8.00;;
8803;SDS011;4438;50.890;4.726;2024-01-25T03:49:12;26.77;;;7.57;;
8803;SDS011;4438;50.890;4.726;2024-01-25T03:51:38;27.73;;;7.63;;
8803;SDS011;4438;50.890;4.726;2024-01-25T03:54:04;21.17;;;7.17;;
8803;SDS011;4438;50.890;4.726;2024-01-25T03:56:30;19.37;;;6.53;;
8803;SDS011;4438;50.890;4.726;2024-01-25T03:58:56;18.97;;;6.80;;
8803;SDS011;4438;50.890;4.726;2024-01-25T04:01:22;24.53;;;7.37;;
8803;SDS011;4438;50.890;4.726;2024-01-25T04:03:48;26.43;;;7.70;;
8803;SDS011;4438;50.890;4.726;2024-01-25T04:06:14;26.63;;;8.03;;
8803;SDS011;4438;50.890;4.726;2024-01-25T04:08:40;26.73;;;8.13;;
8803;SDS011;4438;50.890;4.726;2024-01-25T04:11:06;25.93;;;6.30;;
8803;SDS011;4438;50.890;4.726;2024-01-25T04:13:34;21.37;;;6.23;;
8803;SDS011;4438;50.890;4.726;2024-01-25T04:16:00;18.07;;;5.87;;
8803;SDS011;4438;50.890;4.726;2024-01-25T04:18:26;15.57;;;6.00;;
8803;SDS011;4438;50.890;4.726;2024-01-25T04:20:52;22.43;;;6.30;;
8803;SDS011;4438;50.890;4.726;2024-01-25T04:23:18;16.57;;;5.80;;
8803;SDS011;4438;50.890;4.726;2024-01-25T04:25:44;22.37;;;7.87;;
8803;SDS011;4438;50.890;4.726;2024-01-25T04:28:10;20.83;;;6.30;;
8803;SDS011;4438;50.890;4.726;2024-01-25T04:30:36;22.83;;;6.63;;
8803;SDS011;4438;50.890;4.726;2024-01-25T04:33:02;20.90;;;7.20;;
8803;SDS011;4438;50.890;4.726;2024-01-25T04:35:28;27.97;;;7.60;;
8803;SDS011;4438;50.890;4.726;2024-01-25T04:37:56;19.30;;;6.33;;
8803;SDS011;4438;50.890;4.726;2024-01-25T04:40:22;18.37;;;6.83;;
8803;SDS011;4438;50.890;4.726;2024-01-25T04:42:48;20.47;;;6.77;;
8803;SDS011;4438;50.890;4.726;2024-01-25T04:45:15;16.53;;;6.53;;
8803;SDS011;4438;50.890;4.726;2024-01-25T04:47:41;14.73;;;5.50;;
8803;SDS011;4438;50.890;4.726;2024-01-25T04:50:07;14.80;;;5.87;;
8803;SDS011;4438;50.890;4.726;2024-01-25T04:52:33;17.43;;;6.20;;
8803;SDS011;4438;50.890;4.726;2024-01-25T04:54:59;16.37;;;6.50;;
8803;SDS011;4438;50.890;4.726;2024-01-25T04:57:25;17.27;;;6.73;;
8803;SDS011;4438;50.890;4.726;2024-01-25T04:59:51;15.80;;;6.23;;
8803;SDS011;4438;50.890;4.726;2024-01-25T05:02:17;17.73;;;6.87;;
8803;SDS011;4438;50.890;4.726;2024-01-25T05:04:43;14.20;;;6.10;;
8803;SDS011;4438;50.890;4.726;2024-01-25T05:07:10;14.80;;;5.00;;
8803;SDS011;4438;50.890;4.726;2024-01-25T05:09:36;16.10;;;6.03;;
8803;SDS011;4438;50.890;4.726;2024-01-25T05:12:02;14.83;;;5.90;;
8803;SDS011;4438;50.890;4.726;2024-01-25T05:14:28;16.73;;;5.90;;
8803;SDS011;4438;50.890;4.726;2024-01-25T05:16:54;16.03;;;5.60;;
8803;SDS011;4438;50.890;4.726;2024-01-25T05:19:20;13.57;;;5.47;;
8803;SDS011;4438;50.890;4.726;2024-01-25T05:21:46;14.33;;;5.47;;
8803;SDS011;4438;50.890;4.726;2024-01-25T05:24:13;14.00;;;5.27;;
8803;SDS011;4438;50.890;4.726;2024-01-25T05:26:39;21.90;;;6.20;;
8803;SDS011;4438;50.890;4.726;2024-01-25T05:29:05;15.57;;;5.80;;
8803;SDS011;4438;50.890;4.726;2024-01-25T05:31:31;12.97;;;5.00;;
8803;SDS011;4438;50.890;4.726;2024-01-25T05:33:57;16.90;;;6.00;;
8803;SDS011;4438;50.890;4.726;2024-01-25T05:36:23;23.23;;;6.33;;
8803;SDS011;4438;50.890;4.726;2024-01-25T05:38:49;18.30;;;5.67;;
8803;SDS011;4438;50.890;4.726;2024-01-25T05:41:15;16.83;;;5.33;;
8803;SDS011;4438;50.890;4.726;2024-01-25T05:43:41;15.00;;;5.23;;
8803;SDS011;4438;50.890;4.726;2024-01-25T05:46:07;16.20;;;5.60;;
8803;SDS011;4438;50.890;4.726;2024-01-25T05:48:34;18.97;;;5.57;;
8803;SDS011;4438;50.890;4.726;2024-01-25T05:51:00;26.00;;;6.20;;
8803;SDS011;4438;50.890;4.726;2024-01-25T05:53:27;13.73;;;5.37;;
8803;SDS011;4438;50.890;4.726;2024-01-25T05:55:53;15.00;;;5.13;;
8803;SDS011;4438;50.890;4.726;2024-01-25T05:58:19;12.73;;;5.47;;
8803;SDS011;4438;50.890;4.726;2024-01-25T06:00:45;16.07;;;6.60;;
8803;SDS011;4438;50.890;4.726;2024-01-25T06:03:11;16.43;;;5.33;;
8803;SDS011;4438;50.890;4.726;2024-01-25T06:05:37;18.90;;;5.87;;
8803;SDS011;4438;50.890;4.726;2024-01-25T06:08:03;20.50;;;6.47;;
8803;SDS011;4438;50.890;4.726;2024-01-25T06:10:29;18.47;;;6.30;;
8803;SDS011;4438;50.890;4.726;2024-01-25T06:12:55;15.17;;;5.90;;
8803;SDS011;4438;50.890;4.726;2024-01-25T06:15:21;14.90;;;5.93;;
8803;SDS011;4438;50.890;4.726;2024-01-25T06:17:47;27.30;;;7.03;;
8803;SDS011;4438;50.890;4.726;2024-01-25T06:20:13;20.23;;;6.37;;
8803;SDS011;4438;50.890;4.726;2024-01-25T06:22:40;15.67;;;6.10;;
8803;SDS011;4438;50.890;4.726;2024-01-25T06:25:06;15.40;;;5.97;;
8803;SDS011;4438;50.890;4.726;2024-01-25T06:27:32;17.53;;;6.03;;
8803;SDS011;4438;50.890;4.726;2024-01-25T06:29:58;29.77;;;8.20;;
8803;SDS011;4438;50.890;4.726;2024-01-25T06:32:24;19.77;;;6.60;;
8803;SDS011;4438;50.890;4.726;2024-01-25T06:34:50;17.80;;;6.50;;
8803;SDS011;4438;50.890;4.726;2024-01-25T06:37:16;18.23;;;6.57;;
8803;SDS011;4438;50.890;4.726;2024-01-25T06:39:44;16.37;;;5.60;;
8803;SDS011;4438;50.890;4.726;2024-01-25T06:42:10;14.13;;;6.13;;
8803;SDS011;4438;50.890;4.726;2024-01-25T06:44:36;23.07;;;7.00;;
8803;SDS011;4438;50.890;4.726;2024-01-25T06:47:02;22.40;;;6.37;;
8803;SDS011;4438;50.890;4.726;2024-01-25T06:49:29;19.67;;;6.30;;
8803;SDS011;4438;50.890;4.726;2024-01-25T06:51:55;16.60;;;5.67;;
8803;SDS011;4438;50.890;4.726;2024-01-25T06:54:21;21.87;;;7.90;;
8803;SDS011;4438;50.890;4.726;2024-01-25T06:56:47;21.10;;;7.33;;
8803;SDS011;4438;50.890;4.726;2024-01-25T06:59:14;17.37;;;6.90;;
8803;SDS011;4438;50.890;4.726;2024-01-25T07:01:40;15.30;;;5.80;;
8803;SDS011;4438;50.890;4.726;2024-01-25T07:04:06;29.43;;;8.83;;
8803;SDS011;4438;50.890;4.726;2024-01-25T07:06:32;24.10;;;7.73;;
8803;SDS011;4438;50.890;4.726;2024-01-25T07:08:58;19.67;;;7.43;;
8803;SDS011;4438;50.890;4.726;2024-01-25T07:11:24;21.87;;;7.53;;
8803;SDS011;4438;50.890;4.726;2024-01-25T07:13:51;25.93;;;8.20;;
8803;SDS011;4438;50.890;4.726;2024-01-25T07:16:17;23.30;;;7.40;;
8803;SDS011;4438;50.890;4.726;2024-01-25T07:18:44;21.40;;;7.37;;
8803;SDS011;4438;50.890;4.726;2024-01-25T07:21:10;22.50;;;8.07;;
8803;SDS011;4438;50.890;4.726;2024-01-25T07:23:36;20.17;;;6.97;;
8803;SDS011;4438;50.890;4.726;2024-01-25T07:26:02;24.77;;;7.40;;
8803;SDS011;4438;50.890;4.726;2024-01-25T07:28:28;17.73;;;6.77;;
8803;SDS011;4438;50.890;4.726;2024-01-25T07:30:54;18.33;;;6.80;;
8803;SDS011;4438;50.890;4.726;2024-01-25T07:33:20;16.27;;;6.90;;
8803;SDS011;4438;50.890;4.726;2024-01-25T07:35:46;19.07;;;6.37;;
8803;SDS011;4438;50.890;4.726;2024-01-25T07:38:13;21.13;;;7.93;;
8803;SDS011;4438;50.890;4.726;2024-01-25T07:40:39;26.27;;;8.07;;
8803;SDS011;4438;50.890;4.726;2024-01-25T07:43:06;27.83;;;8.67;;
8803;SDS011;4438;50.890;4.726;2024-01-25T07:45:32;22.87;;;7.97;;
8803;SDS011;4438;50.890;4.726;2024-01-25T07:47:58;19.53;;;7.70;;
8803;SDS011;4438;50.890;4.726;2024-01-25T07:50:24;32.53;;;9.13;;
8803;SDS011;4438;50.890;4.726;2024-01-25T07:52:50;18.17;;;8.33;;
8803;SDS011;4438;50.890;4.726;2024-01-25T07:55:16;21.60;;;8.87;;
8803;SDS011;4438;50.890;4.726;2024-01-25T07:57:42;28.90;;;9.30;;
8803;SDS011;4438;50.890;4.726;2024-01-25T08:00:09;28.63;;;10.13;;
8803;SDS011;4438;50.890;4.726;2024-01-25T08:02:35;27.90;;;9.10;;
8803;SDS011;4438;50.890;4.726;2024-01-25T08:05:04;25.33;;;9.57;;
8803;SDS011;4438;50.890;4.726;2024-01-25T08:07:30;19.97;;;9.13;;
8803;SDS011;4438;50.890;4.726;2024-01-25T08:09:56;28.30;;;10.27;;
8803;SDS011;4438;50.890;4.726;2024-01-25T08:12:26;26.17;;;10.23;;
8803;SDS011;4438;50.890;4.726;2024-01-25T08:14:52;29.33;;;11.27;;
8803;SDS011;4438;50.890;4.726;2024-01-25T08:17:18;23.47;;;10.37;;
8803;SDS011;4438;50.890;4.726;2024-01-25T08:19:45;29.03;;;12.10;;
8803;SDS011;4438;50.890;4.726;2024-01-25T08:22:11;25.30;;;11.57;;
8803;SDS011;4438;50.890;4.726;2024-01-25T08:24:38;30.70;;;12.33;;
8803;SDS011;4438;50.890;4.726;2024-01-25T08:27:04;28.83;;;11.67;;
8803;SDS011;4438;50.890;4.726;2024-01-25T08:29:32;25.43;;;12.10;;
8803;SDS011;4438;50.890;4.726;2024-01-25T08:31:58;27.23;;;12.37;;
8803;SDS011;4438;50.890;4.726;2024-01-25T08:34:24;27.60;;;12.63;;
8803;SDS011;4438;50.890;4.726;2024-01-25T08:36:50;27.07;;;12.47;;
8803;SDS011;4438;50.890;4.726;2024-01-25T08:39:16;29.60;;;13.40;;
8803;SDS011;4438;50.890;4.726;2024-01-25T08:41:42;26.73;;;12.03;;
8803;SDS011;4438;50.890;4.726;2024-01-25T08:44:10;29.30;;;13.33;;
8803;SDS011;4438;50.890;4.726;2024-01-25T08:46:36;28.33;;;13.40;;
8803;SDS011;4438;50.890;4.726;2024-01-25T08:49:03;24.73;;;12.80;;
8803;SDS011;4438;50.890;4.726;2024-01-25T08:51:33;24.17;;;12.20;;
8803;SDS011;4438;50.890;4.726;2024-01-25T08:53:59;25.13;;;12.70;;
8803;SDS011;4438;50.890;4.726;2024-01-25T08:56:26;26.77;;;12.87;;
8803;SDS011;4438;50.890;4.726;2024-01-25T08:58:52;23.67;;;12.53;;
8803;SDS011;4438;50.890;4.726;2024-01-25T09:01:18;22.97;;;12.10;;
8803;SDS011;4438;50.890;4.726;2024-01-25T09:03:44;24.50;;;13.00;;
8803;SDS011;4438;50.890;4.726;2024-01-25T09:06:10;21.70;;;12.80;;
8803;SDS011;4438;50.890;4.726;2024-01-25T09:08:36;23.70;;;13.20;;
8803;SDS011;4438;50.890;4.726;2024-01-25T09:11:02;25.30;;;13.77;;
8803;SDS011;4438;50.890;4.726;2024-01-25T09:13:28;25.17;;;13.30;;
8803;SDS011;4438;50.890;4.726;2024-01-25T09:15:55;21.03;;;12.83;;
8803;SDS011;4438;50.890;4.726;2024-01-25T09:18:21;24.83;;;13.07;;
8803;SDS011;4438;50.890;4.726;2024-01-25T09:20:47;25.33;;;12.70;;
8803;SDS011;4438;50.890;4.726;2024-01-25T09:23:14;29.57;;;14.37;;
8803;SDS011;4438;50.890;4.726;2024-01-25T09:25:41;26.97;;;14.00;;
8803;SDS011;4438;50.890;4.726;2024-01-25T09:28:07;28.70;;;15.13;;
8803;SDS011;4438;50.890;4.726;2024-01-25T09:30:37;26.20;;;14.70;;
8803;SDS011;4438;50.890;4.726;2024-01-25T09:33:03;27.27;;;15.17;;
8803;SDS011;4438;50.890;4.726;2024-01-25T09:35:29;26.60;;;13.67;;
8803;SDS011;4438;50.890;4.726;2024-01-25T09:37:56;28.17;;;14.70;;
8803;SDS011;4438;50.890;4.726;2024-01-25T09:40:22;27.20;;;14.00;;
8803;SDS011;4438;50.890;4.726;2024-01-25T09:42:48;26.83;;;14.43;;
8803;SDS011;4438;50.890;4.726;2024-01-25T09:45:18;30.00;;;14.00;;
8803;SDS011;4438;50.890;4.726;2024-01-25T09:47:48;26.43;;;13.73;;
8803;SDS011;4438;50.890;4.726;2024-01-25T09:50:14;22.17;;;12.67;;
8803;SDS011;4438;50.890;4.726;2024-01-25T09:52:42;24.43;;;14.23;;
8803;SDS011;4438;50.890;4.726;2024-01-25T09:55:11;27.07;;;14.83;;
8803;SDS011;4438;50.890;4.726;2024-01-25T09:57:44;31.17;;;16.73;;
8803;SDS011;4438;50.890;4.726;2024-01-25T10:00:12;32.37;;;16.43;;
8803;SDS011;4438;50.890;4.726;2024-01-25T10:02:38;29.80;;;14.83;;
8803;SDS011;4438;50.890;4.726;2024-01-25T10:05:05;29.73;;;14.40;;
8803;SDS011;4438;50.890;4.726;2024-01-25T10:07:35;26.43;;;15.00;;
8803;SDS011;4438;50.890;4.726;2024-01-25T10:10:02;29.23;;;15.80;;
8803;SDS011;4438;50.890;4.726;2024-01-25T10:12:30;24.60;;;14.70;;
8803;SDS011;4438;50.890;4.726;2024-01-25T10:14:56;30.37;;;15.53;;
8803;SDS011;4438;50.890;4.726;2024-01-25T10:17:22;25.87;;;14.80;;
8803;SDS011;4438;50.890;4.726;2024-01-25T10:19:48;28.10;;;15.37;;
8803;SDS011;4438;50.890;4.726;2024-01-25T10:22:14;27.83;;;15.10;;
8803;SDS011;4438;50.890;4.726;2024-01-25T10:24:40;37.53;;;20.33;;
8803;SDS011;4438;50.890;4.726;2024-01-25T10:27:09;30.40;;;17.53;;
8803;SDS011;4438;50.890;4.726;2024-01-25T10:29:36;32.20;;;16.07;;
8803;SDS011;4438;50.890;4.726;2024-01-25T10:32:03;32.60;;;16.33;;
8803;SDS011;4438;50.890;4.726;2024-01-25T10:34:29;29.17;;;15.30;;
8803;SDS011;4438;50.890;4.726;2024-01-25T10:36:56;26.67;;;15.80;;
8803;SDS011;4438;50.890;4.726;2024-01-25T10:39:22;30.03;;;17.50;;
8803;SDS011;4438;50.890;4.726;2024-01-25T10:41:50;31.30;;;16.87;;
8803;SDS011;4438;50.890;4.726;2024-01-25T10:44:19;29.20;;;16.60;;
8803;SDS011;4438;50.890;4.726;2024-01-25T10:46:49;31.03;;;16.90;;
8803;SDS011;4438;50.890;4.726;2024-01-25T10:49:15;32.37;;;17.77;;
8803;SDS011;4438;50.890;4.726;2024-01-25T10:51:42;32.93;;;17.77;;
8803;SDS011;4438;50.890;4.726;2024-01-25T10:54:09;33.10;;;18.17;;
8803;SDS011;4438;50.890;4.726;2024-01-25T10:56:36;34.03;;;16.73;;
8803;SDS011;4438;50.890;4.726;2024-01-25T10:59:02;29.97;;;16.90;;
8803;SDS011;4438;50.890;4.726;2024-01-25T11:01:28;29.07;;;16.83;;
8803;SDS011;4438;50.890;4.726;2024-01-25T11:03:54;37.07;;;17.80;;
8803;SDS011;4438;50.890;4.726;2024-01-25T11:06:21;32.03;;;17.07;;
8803;SDS011;4438;50.890;4.726;2024-01-25T11:08:48;32.40;;;17.70;;
8803;SDS011;4438;50.890;4.726;2024-01-25T11:11:14;31.27;;;16.70;;
8803;SDS011;4438;50.890;4.726;2024-01-25T11:13:41;34.03;;;16.97;;
8803;SDS011;4438;50.890;4.726;2024-01-25T11:16:17;33.53;;;17.40;;
8803;SDS011;4438;50.890;4.726;2024-01-25T11:18:52;33.80;;;17.27;;
8803;SDS011;4438;50.890;4.726;2024-01-25T11:21:39;38.80;;;16.63;;
8803;SDS011;4438;50.890;4.726;2024-01-25T11:24:11;36.73;;;17.33;;
8803;SDS011;4438;50.890;4.726;2024-01-25T11:26:37;33.67;;;17.50;;
8803;SDS011;4438;50.890;4.726;2024-01-25T11:29:03;34.90;;;17.70;;
8803;SDS011;4438;50.890;4.726;2024-01-25T11:31:30;29.70;;;15.63;;
8803;SDS011;4438;50.890;4.726;2024-01-25T11:34:00;31.47;;;15.93;;
8803;SDS011;4438;50.890;4.726;2024-01-25T11:36:26;31.50;;;16.20;;
8803;SDS011;4438;50.890;4.726;2024-01-25T11:38:52;28.83;;;15.83;;
8803;SDS011;4438;50.890;4.726;2024-01-25T11:41:19;30.97;;;15.10;;
8803;SDS011;4438;50.890;4.726;2024-01-25T11:43:45;28.93;;;15.20;;
8803;SDS011;4438;50.890;4.726;2024-01-25T11:46:11;28.43;;;14.87;;
8803;SDS011;4438;50.890;4.726;2024-01-25T11:48:42;30.80;;;14.70;;
8803;SDS011;4438;50.890;4.726;2024-01-25T11:51:09;25.93;;;13.83;;
8803;SDS011;4438;50.890;4.726;2024-01-25T11:53:38;27.57;;;14.73;;
8803;SDS011;4438;50.890;4.726;2024-01-25T11:56:04;29.67;;;14.97;;
8803;SDS011;4438;50.890;4.726;2024-01-25T11:58:32;27.27;;;13.90;;
8803;SDS011;4438;50.890;4.726;2024-01-25T12:00:59;26.90;;;13.93;;
8803;SDS011;4438;50.890;4.726;2024-01-25T12:03:25;28.60;;;14.63;;
8803;SDS011;4438;50.890;4.726;2024-01-25T12:05:51;28.00;;;14.27;;
8803;SDS011;4438;50.890;4.726;2024-01-25T12:08:18;25.70;;;14.80;;
8803;SDS011;4438;50.890;4.726;2024-01-25T12:10:44;29.97;;;14.87;;
8803;SDS011;4438;50.890;4.726;2024-01-25T12:13:10;33.70;;;15.00;;
8803;SDS011;4438;50.890;4.726;2024-01-25T12:15:36;26.10;;;14.83;;
8803;SDS011;4438;50.890;4.726;2024-01-25T12:18:02;30.57;;;14.90;;
8803;SDS011;4438;50.890;4.726;2024-01-25T12:20:28;25.37;;;14.80;;
8803;SDS011;4438;50.890;4.726;2024-01-25T12:22:54;31.13;;;15.10;;
8803;SDS011;4438;50.890;4.726;2024-01-25T12:25:23;28.23;;;15.13;;
8803;SDS011;4438;50.890;4.726;2024-01-25T12:27:50;30.73;;;14.97;;
8803;SDS011;4438;50.890;4.726;2024-01-25T12:30:16;31.20;;;14.93;;
8803;SDS011;4438;50.890;4.726;2024-01-25T12:32:42;34.73;;;14.73;;
8803;SDS011;4438;50.890;4.726;2024-01-25T12:35:08;30.23;;;16.27;;
8803;SDS011;4438;50.890;4.726;2024-01-25T12:37:34;32.13;;;16.47;;
8803;SDS011;4438;50.890;4.726;2024-01-25T12:40:00;29.83;;;15.23;;
8803;SDS011;4438;50.890;4.726;2024-01-25T12:42:27;32.70;;;16.37;;
8803;SDS011;4438;50.890;4.726;2024-01-25T12:44:53;30.17;;;15.97;;
8803;SDS011;4438;50.890;4.726;2024-01-25T12:47:20;30.60;;;14.80;;
8803;SDS011;4438;50.890;4.726;2024-01-25T12:49:46;32.77;;;16.20;;
8803;SDS011;4438;50.890;4.726;2024-01-25T12:52:13;28.70;;;15.67;;
8803;SDS011;4438;50.890;4.726;2024-01-25T12:54:39;35.50;;;15.77;;
8803;SDS011;4438;50.890;4.726;2024-01-25T12:57:05;35.63;;;15.20;;
8803;SDS011;4438;50.890;4.726;2024-01-25T12:59:35;27.20;;;15.07;;
8803;SDS011;4438;50.890;4.726;2024-01-25T13:02:01;31.50;;;14.83;;
8803;SDS011;4438;50.890;4.726;2024-01-25T13:04:27;27.87;;;14.37;;
8803;SDS011;4438;50.890;4.726;2024-01-25T13:06:54;32.87;;;15.37;;
8803;SDS011;4438;50.890;4.726;2024-01-25T13:09:21;31.37;;;14.93;;
8803;SDS011;4438;50.890;4.726;2024-01-25T13:11:47;28.13;;;15.37;;
8803;SDS011;4438;50.890;4.726;2024-01-25T13:14:13;25.97;;;14.03;;
8803;SDS011;4438;50.890;4.726;2024-01-25T13:16:39;28.20;;;14.00;;
8803;SDS011;4438;50.890;4.726;2024-01-25T13:19:05;28.97;;;14.23;;
8803;SDS011;4438;50.890;4.726;2024-01-25T13:21:32;24.93;;;13.70;;
8803;SDS011;4438;50.890;4.726;2024-01-25T13:24:01;28.93;;;13.67;;
8803;SDS011;4438;50.890;4.726;2024-01-25T13:26:27;30.67;;;14.67;;
8803;SDS011;4438;50.890;4.726;2024-01-25T13:28:53;25.23;;;13.17;;
8803;SDS011;4438;50.890;4.726;2024-01-25T13:31:19;21.33;;;12.17;;
8803;SDS011;4438;50.890;4.726;2024-01-25T13:33:45;17.10;;;11.30;;
8803;SDS011;4438;50.890;4.726;2024-01-25T13:36:12;18.20;;;11.27;;
8803;SDS011;4438;50.890;4.726;2024-01-25T13:38:39;20.20;;;12.37;;
8803;SDS011;4438;50.890;4.726;2024-01-25T13:41:06;19.37;;;10.23;;
8803;SDS011;4438;50.890;4.726;2024-01-25T13:43:32;19.13;;;11.77;;
8803;SDS011;4438;50.890;4.726;2024-01-25T13:45:58;18.33;;;10.57;;
8803;SDS011;4438;50.890;4.726;2024-01-25T13:48:24;17.73;;;9.53;;
8803;SDS011;4438;50.890;4.726;2024-01-25T13:50:50;17.43;;;10.30;;
8803;SDS011;4438;50.890;4.726;2024-01-25T13:53:16;14.40;;;9.30;;
8803;SDS011;4438;50.890;4.726;2024-01-25T13:55:42;16.87;;;10.43;;
8803;SDS011;4438;50.890;4.726;2024-01-25T13:58:09;13.67;;;9.20;;
8803;SDS011;4438;50.890;4.726;2024-01-25T14:00:35;12.77;;;9.20;;
8803;SDS011;4438;50.890;4.726;2024-01-25T14:03:01;14.57;;;9.23;;
8803;SDS011;4438;50.890;4.726;2024-01-25T14:05:27;11.37;;;8.23;;
8803;SDS011;4438;50.890;4.726;2024-01-25T14:07:53;15.13;;;8.83;;
8803;SDS011;4438;50.890;4.726;2024-01-25T14:10:19;13.93;;;8.27;;
8803;SDS011;4438;50.890;4.726;2024-01-25T14:12:45;10.83;;;7.50;;
8803;SDS011;4438;50.890;4.726;2024-01-25T14:15:12;13.27;;;8.23;;
8803;SDS011;4438;50.890;4.726;2024-01-25T14:17:38;10.87;;;7.60;;
8803;SDS011;4438;50.890;4.726;2024-01-25T14:20:05;12.80;;;8.13;;
8803;SDS011;4438;50.890;4.726;2024-01-25T14:22:31;11.70;;;7.50;;
8803;SDS011;4438;50.890;4.726;2024-01-25T14:24:58;12.40;;;7.60;;
8803;SDS011;4438;50.890;4.726;2024-01-25T14:27:24;12.17;;;7.80;;
8803;SDS011;4438;50.890;4.726;2024-01-25T14:29:50;11.80;;;7.60;;
8803;SDS011;4438;50.890;4.726;2024-01-25T14:32:16;9.63;;;6.57;;
8803;SDS011;4438;50.890;4.726;2024-01-25T14:34:44;13.20;;;7.50;;
8803;SDS011;4438;50.890;4.726;2024-01-25T14:37:10;9.60;;;6.30;;
8803;SDS011;4438;50.890;4.726;2024-01-25T14:39:36;11.27;;;6.63;;
8803;SDS011;4438;50.890;4.726;2024-01-25T14:42:03;10.03;;;7.13;;
8803;SDS011;4438;50.890;4.726;2024-01-25T14:44:29;9.63;;;6.30;;
8803;SDS011;4438;50.890;4.726;2024-01-25T14:46:55;8.10;;;6.67;;
8803;SDS011;4438;50.890;4.726;2024-01-25T14:49:24;9.23;;;6.10;;
8803;SDS011;4438;50.890;4.726;2024-01-25T14:51:50;8.07;;;6.00;;